Aeroporto :
LOGIN :

Iscrizione | Disclaimer

   EN    FR    IT 

 










Sommario :    VFR   VFR Marginale   IFR   IFR Intensivo   IFR Molto Intensivo
Visibilità : 
Base nubi : 
>= 8 km
>= 3000ft
5 / 8 km
1000 / 3000 ft
1500m / 5 km
500 / 1000 ft
800 / 1500m
200 / 500 ft
< 800m
< 200 ft
Simboli :   Temporali  Nebbia  Neve Forte  Precipitazioni Forti  Vento > 20 kt
SIGMETs :   Varie  Temporali  Ghiacco  Turbolenza  Onda orograficha  Ceneri Vulcaniche






- Altitudine del aeroporto : 65 ft
- Codice IATA : PMO


LICJ - Palermo Punta Raisi

ULTIMO METAR :
  • 271520Z 04013KT 9999 FEW040 20/11 Q1024

METARs OBSOLETI :
  • 271450Z 04013KT 9999 FEW040 21/13 Q1024
  • 271420Z 04012KT 9999 FEW040 21/11 Q1024
  • 271350Z 04014KT CAVOK 21/10 Q1024
  • 271320Z 05013KT CAVOK 21/10 Q1024
  • 271250Z 05015KT CAVOK 21/09 Q1024

TAF TAF LICJ
Valido dal 27 a 12 ore il 28 a 12 ore UTC


271100Z 2712/2812 05013KT 9999 FEW020
BECMG 2719/2720 VRB05KT



MetMap, La meteo Aeronautica in un colpo d'occhio ! - Copyright ORBIFLY Dicembre 2007 - Disclaimer

ORBIFLY MET'MAP TEAM :

Programmazione e sviluppo : Alexandra Zaïnal
Concezione : Baudouin d'Aumeries
Aiuto per la programmazione : Marc-Olivier Méhu
Supporto tecnico e logistico : Manuel Goepfert
Aiuto per la traduzione : Arnaldo La Scala

Contatto : metmap@orbifly.com




FONTI E CREDITI :

   NOAA